Time;durP1;ratioP1;P1;durP2;ratioP2;P2;SDS_P1;SDS_P2;PMS_P1;PMS_P2;Temp;Humidity;BMP_temperature;BMP_pressure;BME280_temperature;BME280_humidity;BME280_pressure;Samples;Min_cycle;Max_cycle;Signal;HPM_P1;HPM_P2
2024/04/12 00:01:51;;;;;;;;;;;10.10;73.50;;;;;;5428911;26;20429;-62
2024/04/12 00:04:27;;;;;;;;;;;10.10;73.60;;;;;;5426464;26;19929;-63
2024/04/12 00:07:05;;;;;;;;;;;10.00;73.70;;;;;;5428814;26;20001;-66
2024/04/12 00:09:40;;;;;;;;;;;10.00;73.70;;;;;;5429389;26;19935;-62
2024/04/12 00:12:13;;;;;;;;;;;10.00;73.80;;;;;;5419264;26;19953;-62
2024/04/12 00:14:50;;;;;;;;;;;10.00;73.80;;;;;;5421529;26;20011;-62
2024/04/12 00:17:16;;;;;;;;;;;10.00;73.90;;;;;;5429034;26;19929;-65
2024/04/12 00:19:52;;;;;;;;;;;9.90;73.90;;;;;;5462337;26;19928;-62
2024/04/12 00:22:29;;;;;;;;;;;9.90;73.90;;;;;;5454997;26;19936;-67
2024/04/12 00:25:05;;;;;;;;;;;9.90;73.80;;;;;;5459466;26;19935;-67
2024/04/12 00:27:37;;;;;;;;;;;9.90;73.80;;;;;;5464684;26;19928;-68
2024/04/12 00:30:37;;;;;;;;;;;9.90;73.90;;;;;;5456308;26;19937;-68
2024/04/12 00:33:09;;;;;;;;;;;9.90;73.90;;;;;;5464038;26;19935;-68
2024/04/12 00:35:49;;;;;;;;;;;9.80;74.00;;;;;;5458118;26;19929;-67
2024/04/12 00:38:33;;;;;;;;;;;9.80;74.00;;;;;;5454156;26;19960;-68
2024/04/12 00:41:14;;;;;;;;;;;9.80;74.00;;;;;;5448068;26;19997;-67
2024/04/12 00:43:50;;;;;;;;;;;9.80;74.00;;;;;;5421650;26;21259;-68
2024/04/12 00:46:28;;;;;;;;;;;9.80;74.10;;;;;;5406946;26;19936;-67
2024/04/12 00:49:06;;;;;;;;;;;9.80;74.00;;;;;;5416092;26;19935;-68
2024/04/12 00:51:49;;;;;;;;;;;9.70;74.10;;;;;;5420851;26;19936;-67
2024/04/12 00:54:32;;;;;;;;;;;9.70;74.20;;;;;;5407167;26;19929;-68
2024/04/12 00:57:09;;;;;;;;;;;9.70;74.30;;;;;;5428879;26;19937;-68
2024/04/12 00:59:42;;;;;;;;;;;9.70;74.40;;;;;;5397928;26;19941;-67
2024/04/12 01:02:21;;;;;;;;;;;9.60;74.50;;;;;;5410815;26;19936;-67
2024/04/12 01:05:00;;;;;;;;;;;9.60;74.50;;;;;;5402840;26;19936;-67
2024/04/12 01:07:36;;;;;;;;;;;9.60;74.50;;;;;;5421508;26;19939;-68
2024/04/12 01:10:11;;;;;;;;;;;9.60;74.60;;;;;;5415061;26;20002;-68
2024/04/12 01:12:47;;;;;;;;;;;9.60;74.60;;;;;;5411426;26;19929;-68
2024/04/12 01:15:19;;;;;;;;;;;9.60;74.70;;;;;;5420774;26;19936;-68
2024/04/12 01:18:01;;;;;;;;;;;9.60;74.60;;;;;;5411500;26;19929;-67
2024/04/12 01:20:35;;;;;;;;;;;9.50;74.70;;;;;;5419377;26;19930;-67
2024/04/12 01:23:10;;;;;;;;;;;9.50;74.70;;;;;;5420163;26;19936;-66
2024/04/12 01:25:45;;;;;;;;;;;9.50;74.80;;;;;;5421081;26;19937;-68
2024/04/12 01:28:20;;;;;;;;;;;9.50;74.80;;;;;;5416716;26;19929;-67
2024/04/12 01:30:59;;;;;;;;;;;9.40;74.90;;;;;;5414928;26;19944;-71
2024/04/12 01:33:36;;;;;;;;;;;9.50;75.00;;;;;;5420511;26;19998;-71
2024/04/12 01:36:11;;;;;;;;;;;9.40;75.00;;;;;;5424357;26;19937;-71
2024/04/12 01:38:53;;;;;;;;;;;9.40;75.10;;;;;;5421509;26;19929;-71
2024/04/12 01:41:31;;;;;;;;;;;9.40;75.20;;;;;;5428257;26;19964;-72
2024/04/12 01:44:12;;;;;;;;;;;9.40;75.20;;;;;;5425812;26;19928;-71
2024/04/12 01:46:55;;;;;;;;;;;9.40;75.20;;;;;;5404366;26;19961;-72
2024/04/12 01:49:33;;;;;;;;;;;9.40;75.10;;;;;;5399981;26;19953;-71
2024/04/12 01:52:25;;;;;;;;;;;9.40;75.20;;;;;;5404447;26;19929;-71
2024/04/12 01:55:05;;;;;;;;;;;9.40;75.40;;;;;;5415154;26;19929;-72
2024/04/12 01:57:43;;;;;;;;;;;9.30;75.60;;;;;;5412908;26;19937;-72
2024/04/12 02:00:17;;;;;;;;;;;9.30;75.60;;;;;;5390831;26;19965;-70
2024/04/12 02:02:52;;;;;;;;;;;9.30;75.70;;;;;;5410687;26;19929;-70
2024/04/12 02:05:29;;;;;;;;;;;9.30;75.80;;;;;;5423858;26;20359;-72
2024/04/12 02:08:08;;;;;;;;;;;9.30;75.90;;;;;;5471517;26;19928;-70
2024/04/12 02:10:41;;;;;;;;;;;9.20;75.90;;;;;;5418969;26;19941;-71
2024/04/12 02:13:20;;;;;;;;;;;9.20;75.90;;;;;;5404600;26;19936;-71
2024/04/12 02:15:53;;;;;;;;;;;9.20;76.00;;;;;;5448346;26;21042;-70
2024/04/12 02:18:36;;;;;;;;;;;9.20;76.10;;;;;;5456696;26;19929;-71
2024/04/12 02:21:10;;;;;;;;;;;9.20;76.10;;;;;;5457729;26;20431;-72
2024/04/12 02:23:46;;;;;;;;;;;9.20;76.10;;;;;;5423470;26;19936;-71
2024/04/12 02:26:18;;;;;;;;;;;9.20;76.20;;;;;;5399694;26;19929;-72
2024/04/12 02:29:01;;;;;;;;;;;9.20;76.30;;;;;;5419247;26;19929;-72
2024/04/12 02:31:35;;;;;;;;;;;9.10;76.20;;;;;;5411057;26;19937;-70
2024/04/12 02:34:11;;;;;;;;;;;9.10;76.20;;;;;;5416533;26;19933;-71
2024/04/12 02:36:46;;;;;;;;;;;9.10;76.30;;;;;;5427092;26;19936;-71
2024/04/12 02:39:23;;;;;;;;;;;9.10;76.30;;;;;;5409305;26;20581;-72
2024/04/12 02:41:56;;;;;;;;;;;9.00;76.40;;;;;;5415317;26;19940;-74
2024/04/12 02:44:35;;;;;;;;;;;9.00;76.50;;;;;;5443008;26;19956;-71
2024/04/12 02:47:07;;;;;;;;;;;9.00;76.40;;;;;;5457455;26;19928;-73
2024/04/12 02:49:43;;;;;;;;;;;9.00;76.50;;;;;;5450365;26;19936;-73
2024/04/12 02:52:17;;;;;;;;;;;9.00;76.60;;;;;;5452636;26;19955;-73
2024/04/12 02:54:54;;;;;;;;;;;9.00;76.60;;;;;;5455582;26;19936;-73
2024/04/12 02:57:34;;;;;;;;;;;9.00;76.70;;;;;;5442531;26;19943;-73
2024/04/12 03:00:21;;;;;;;;;;;9.00;76.70;;;;;;5440614;26;19987;-74
2024/04/12 03:02:54;;;;;;;;;;;8.90;76.90;;;;;;5453000;26;19937;-73
2024/04/12 03:05:30;;;;;;;;;;;8.90;77.00;;;;;;5438156;26;19928;-74
2024/04/12 03:08:02;;;;;;;;;;;8.90;77.00;;;;;;5442753;26;19928;-73
2024/04/12 03:10:43;;;;;;;;;;;8.90;77.00;;;;;;5453397;26;19935;-73
2024/04/12 03:13:16;;;;;;;;;;;8.90;77.10;;;;;;5427168;26;20251;-73
2024/04/12 03:15:54;;;;;;;;;;;8.80;77.00;;;;;;5453594;26;19928;-75
2024/04/12 03:18:27;;;;;;;;;;;8.80;77.20;;;;;;5449956;26;20001;-73
2024/04/12 03:21:03;;;;;;;;;;;8.80;77.30;;;;;;5439517;26;20013;-74
2024/04/12 03:23:35;;;;;;;;;;;8.80;77.20;;;;;;5452582;26;19997;-73
2024/04/12 03:26:11;;;;;;;;;;;8.80;77.20;;;;;;5460530;26;19936;-73
2024/04/12 03:28:54;;;;;;;;;;;8.70;77.10;;;;;;5446082;26;19936;-73
2024/04/12 03:31:33;;;;;;;;;;;8.70;77.00;;;;;;5445014;26;19928;-73
2024/04/12 03:34:06;;;;;;;;;;;8.70;76.90;;;;;;5449588;26;19957;-73
2024/04/12 03:37:16;;;;;;;;;;;8.70;76.90;;;;;;5462168;26;20266;-73
2024/04/12 03:39:48;;;;;;;;;;;8.70;76.90;;;;;;5413158;26;19937;-73
2024/04/12 03:42:28;;;;;;;;;;;8.70;77.00;;;;;;5413606;26;19936;-73
2024/04/12 03:45:12;;;;;;;;;;;8.70;77.00;;;;;;5403717;26;20365;-73
2024/04/12 03:47:54;;;;;;;;;;;8.70;77.00;;;;;;5410043;26;19929;-74
2024/04/12 03:50:30;;;;;;;;;;;8.70;77.20;;;;;;5417649;26;20256;-73
2024/04/12 03:53:14;;;;;;;;;;;8.70;77.20;;;;;;5420538;26;19929;-63
2024/04/12 03:55:54;;;;;;;;;;;8.70;77.20;;;;;;5409472;26;19940;-64
2024/04/12 03:58:29;;;;;;;;;;;8.70;77.40;;;;;;5451031;26;19939;-63
2024/04/12 04:01:05;;;;;;;;;;;8.70;77.50;;;;;;5440639;26;20334;-64
2024/04/12 04:03:49;;;;;;;;;;;8.60;77.70;;;;;;5458927;26;19932;-63
2024/04/12 04:06:24;;;;;;;;;;;8.60;77.80;;;;;;5448825;26;19936;-63
2024/04/12 04:08:57;;;;;;;;;;;8.60;77.80;;;;;;5448709;26;19928;-63
2024/04/12 04:11:33;;;;;;;;;;;8.60;77.80;;;;;;5451926;26;19928;-63
2024/04/12 04:14:13;;;;;;;;;;;8.60;77.80;;;;;;5451969;26;19928;-64
2024/04/12 04:16:49;;;;;;;;;;;8.60;77.80;;;;;;5449686;26;19936;-65
2024/04/12 04:19:30;;;;;;;;;;;8.50;77.90;;;;;;5447339;26;19928;-64
2024/04/12 04:22:20;;;;;;;;;;;8.50;77.80;;;;;;5453555;26;19933;-64
2024/04/12 04:24:52;;;;;;;;;;;8.50;77.90;;;;;;5445484;26;19935;-63
2024/04/12 04:27:30;;;;;;;;;;;8.50;77.90;;;;;;5457005;26;19928;-62
2024/04/12 04:30:05;;;;;;;;;;;8.40;77.90;;;;;;5461622;26;20060;-64
2024/04/12 04:32:40;;;;;;;;;;;8.40;77.90;;;;;;5473717;26;19936;-63
2024/04/12 04:35:09;;;;;;;;;;;8.40;77.90;;;;;;5455540;26;19996;-63
2024/04/12 04:37:44;;;;;;;;;;;8.40;77.90;;;;;;5456888;26;19996;-63
2024/04/12 04:40:17;;;;;;;;;;;8.30;77.90;;;;;;5446906;26;19928;-63
2024/04/12 04:42:54;;;;;;;;;;;8.40;77.80;;;;;;5452101;26;20367;-63
2024/04/12 04:45:31;;;;;;;;;;;8.30;77.70;;;;;;5453996;26;19928;-63
2024/04/12 04:48:10;;;;;;;;;;;8.30;77.80;;;;;;5456921;26;19973;-64
2024/04/12 04:50:52;;;;;;;;;;;8.30;77.90;;;;;;5462601;26;19929;-63
2024/04/12 04:53:29;;;;;;;;;;;8.30;77.80;;;;;;5462570;26;19961;-64
2024/04/12 04:56:05;;;;;;;;;;;8.30;77.80;;;;;;5456793;26;19938;-63
2024/04/12 04:58:41;;;;;;;;;;;8.30;77.80;;;;;;5459472;26;20366;-64
2024/04/12 05:01:11;;;;;;;;;;;8.30;77.80;;;;;;5451832;26;19936;-71
2024/04/12 05:03:49;;;;;;;;;;;8.20;77.90;;;;;;5425683;26;19928;-71
2024/04/12 05:06:30;;;;;;;;;;;8.20;77.90;;;;;;5419254;26;19935;-71
2024/04/12 05:09:08;;;;;;;;;;;8.20;77.80;;;;;;5423541;26;19929;-72
2024/04/12 05:11:42;;;;;;;;;;;8.20;77.90;;;;;;5422172;26;19940;-71
2024/04/12 05:14:46;;;;;;;;;;;8.20;77.90;;;;;;5419261;26;19940;-70
2024/04/12 05:17:09;;;;;;;;;;;8.20;77.90;;;;;;5413282;26;20360;-71
2024/04/12 05:19:47;;;;;;;;;;;8.20;77.90;;;;;;5421166;26;19949;-72
2024/04/12 05:22:26;;;;;;;;;;;8.20;78.00;;;;;;5422326;26;19929;-72
2024/04/12 05:25:06;;;;;;;;;;;8.30;78.00;;;;;;5424426;26;19935;-71
2024/04/12 05:27:41;;;;;;;;;;;8.30;78.10;;;;;;5414427;26;19943;-72
2024/04/12 05:33:25;;;;;;;;;;;8.30;78.20;;;;;;5391915;26;19948;-73
2024/04/12 05:36:01;;;;;;;;;;;8.30;78.30;;;;;;5430799;26;20404;-72
2024/04/12 05:38:38;;;;;;;;;;;8.30;78.40;;;;;;5416770;26;19980;-71
2024/04/12 05:41:13;;;;;;;;;;;8.40;78.50;;;;;;5412032;26;19929;-71
2024/04/12 05:43:48;;;;;;;;;;;8.40;78.40;;;;;;5424374;26;19997;-71
2024/04/12 05:46:22;;;;;;;;;;;8.50;78.40;;;;;;5419650;26;19943;-71
2024/04/12 05:49:09;;;;;;;;;;;8.50;78.40;;;;;;5418514;26;20356;-70
2024/04/12 05:51:42;;;;;;;;;;;8.60;78.40;;;;;;5444421;26;19929;-73
2024/04/12 05:54:15;;;;;;;;;;;8.60;78.30;;;;;;5444268;26;20267;-71
2024/04/12 05:56:48;;;;;;;;;;;8.70;78.20;;;;;;5465489;26;19936;-72
2024/04/12 05:59:24;;;;;;;;;;;8.70;78.30;;;;;;5466618;26;19976;-69
2024/04/12 06:01:57;;;;;;;;;;;8.80;78.10;;;;;;5450857;26;19944;-72
2024/04/12 06:04:36;;;;;;;;;;;8.80;78.00;;;;;;5455246;26;19935;-71
2024/04/12 06:07:11;;;;;;;;;;;8.90;77.60;;;;;;5438396;26;20376;-72
2024/04/12 06:09:50;;;;;;;;;;;9.00;77.60;;;;;;5454478;26;19935;-70
2024/04/12 06:12:24;;;;;;;;;;;9.00;77.30;;;;;;5449930;26;19929;-62
2024/04/12 06:15:00;;;;;;;;;;;9.10;77.40;;;;;;5454478;26;19996;-62
2024/04/12 06:17:32;;;;;;;;;;;9.20;77.20;;;;;;5450169;26;19935;-62
2024/04/12 06:20:08;;;;;;;;;;;9.20;77.40;;;;;;5454315;26;19943;-62
2024/04/12 06:22:43;;;;;;;;;;;9.20;76.90;;;;;;5420385;26;22248;-62
2024/04/12 06:25:28;;;;;;;;;;;9.40;76.40;;;;;;5416199;26;19937;-62
2024/04/12 06:28:01;;;;;;;;;;;9.50;76.50;;;;;;5459246;26;20317;-62
2024/04/12 06:30:37;;;;;;;;;;;9.60;76.80;;;;;;5435483;26;19932;-62
2024/04/12 06:33:12;;;;;;;;;;;9.70;76.60;;;;;;5453814;26;19997;-62
2024/04/12 06:35:49;;;;;;;;;;;9.80;76.20;;;;;;5451329;26;19952;-62
2024/04/12 06:38:22;;;;;;;;;;;10.00;76.60;;;;;;5457201;26;19957;-62
2024/04/12 06:40:55;;;;;;;;;;;10.10;76.50;;;;;;5464343;26;20260;-62
2024/04/12 06:43:28;;;;;;;;;;;10.20;75.80;;;;;;5452627;26;19952;-62
2024/04/12 06:46:08;;;;;;;;;;;10.40;75.70;;;;;;5459370;26;19940;-61
2024/04/12 06:48:41;;;;;;;;;;;10.50;75.40;;;;;;5444505;26;19941;-62
2024/04/12 06:51:17;;;;;;;;;;;10.70;75.40;;;;;;5444287;26;19929;-63
2024/04/12 06:53:49;;;;;;;;;;;10.80;75.00;;;;;;5442580;26;19940;-62
2024/04/12 06:56:34;;;;;;;;;;;10.90;74.70;;;;;;5443848;26;19957;-64
2024/04/12 06:59:07;;;;;;;;;;;11.10;74.10;;;;;;5446862;26;19936;-61
2024/04/12 07:01:43;;;;;;;;;;;11.20;73.40;;;;;;5423060;26;19928;-64
2024/04/12 07:04:17;;;;;;;;;;;11.30;72.60;;;;;;5425469;26;19929;-63
2024/04/12 07:06:56;;;;;;;;;;;11.50;72.20;;;;;;5416113;26;19944;-65
2024/04/12 07:09:30;;;;;;;;;;;11.60;72.10;;;;;;5420056;26;19941;-63
2024/04/12 07:12:05;;;;;;;;;;;11.70;71.70;;;;;;5430612;26;19940;-64
2024/04/12 07:14:41;;;;;;;;;;;11.70;71.70;;;;;;5415315;26;19940;-65
2024/04/12 07:17:23;;;;;;;;;;;11.90;71.60;;;;;;5414880;26;19940;-63
2024/04/12 07:19:57;;;;;;;;;;;12.10;71.20;;;;;;5427149;26;19929;-61
2024/04/12 07:22:34;;;;;;;;;;;12.20;70.70;;;;;;5406951;26;19947;-64
2024/04/12 07:25:09;;;;;;;;;;;12.30;70.10;;;;;;5408897;26;19944;-64
2024/04/12 07:27:47;;;;;;;;;;;12.50;69.60;;;;;;5421929;26;19941;-63
2024/04/12 07:30:20;;;;;;;;;;;12.70;69.00;;;;;;5419443;26;19936;-63
2024/04/12 07:32:56;;;;;;;;;;;12.90;68.50;;;;;;5423728;26;19998;-63
2024/04/12 07:35:30;;;;;;;;;;;13.20;68.20;;;;;;5407518;26;19929;-63
2024/04/12 07:38:08;;;;;;;;;;;13.40;67.30;;;;;;5461386;26;19937;-62
2024/04/12 07:40:52;;;;;;;;;;;13.60;67.10;;;;;;5464470;26;20263;-64
2024/04/12 07:43:55;;;;;;;;;;;13.80;66.50;;;;;;5445979;26;19944;-64
2024/04/12 07:46:33;;;;;;;;;;;14.10;65.90;;;;;;5456700;26;19935;-63
2024/04/12 07:49:08;;;;;;;;;;;14.20;65.50;;;;;;5465001;26;19936;-63
2024/04/12 07:51:45;;;;;;;;;;;14.40;64.30;;;;;;5463078;26;19932;-63
2024/04/12 07:54:20;;;;;;;;;;;14.50;63.70;;;;;;5443230;26;20044;-63
2024/04/12 07:57:07;;;;;;;;;;;14.70;63.20;;;;;;5456321;26;19928;-63
2024/04/12 07:59:47;;;;;;;;;;;14.90;63.40;;;;;;5423435;26;20289;-63
2024/04/12 08:02:21;;;;;;;;;;;15.10;61.70;;;;;;5416053;26;19969;-63
2024/04/12 08:04:56;;;;;;;;;;;15.30;60.90;;;;;;5424804;26;19984;-64
2024/04/12 08:07:38;;;;;;;;;;;15.60;60.10;;;;;;5426969;26;20683;-63
2024/04/12 08:10:29;;;;;;;;;;;15.80;59.90;;;;;;5427295;26;19929;-63
2024/04/12 08:13:10;;;;;;;;;;;16.00;59.90;;;;;;5422909;26;19928;-63
2024/04/12 08:15:50;;;;;;;;;;;16.10;59.10;;;;;;5451586;26;19928;-63
2024/04/12 08:18:24;;;;;;;;;;;16.30;58.70;;;;;;5463942;26;19939;-63
2024/04/12 08:21:07;;;;;;;;;;;16.50;58.00;;;;;;5459995;26;19974;-63
2024/04/12 08:23:46;;;;;;;;;;;16.60;57.90;;;;;;5461184;26;20364;-63
2024/04/12 08:26:27;;;;;;;;;;;16.80;57.70;;;;;;5462228;26;20252;-63
2024/04/12 08:29:00;;;;;;;;;;;16.90;57.60;;;;;;5457472;26;19928;-63
2024/04/12 08:31:39;;;;;;;;;;;17.10;57.30;;;;;;5462751;26;19952;-62
2024/04/12 08:34:14;;;;;;;;;;;17.30;56.90;;;;;;5467517;26;19935;-62
2024/04/12 08:36:49;;;;;;;;;;;17.40;56.30;;;;;;5457138;26;19936;-60
2024/04/12 08:39:29;;;;;;;;;;;17.50;56.50;;;;;;5448370;26;19928;-61
2024/04/12 08:42:05;;;;;;;;;;;17.70;56.60;;;;;;5445619;26;20032;-61
2024/04/12 08:44:37;;;;;;;;;;;17.90;56.10;;;;;;5442725;26;19937;-61
2024/04/12 08:47:30;;;;;;;;;;;18.10;55.40;;;;;;5442075;26;19940;-62
2024/04/12 08:50:04;;;;;;;;;;;18.20;54.90;;;;;;5451608;26;22527;-62
2024/04/12 08:52:47;;;;;;;;;;;18.40;54.70;;;;;;5440682;26;19929;-60
2024/04/12 08:55:22;;;;;;;;;;;18.60;54.40;;;;;;5447604;26;19992;-62
2024/04/12 08:58:00;;;;;;;;;;;18.70;54.10;;;;;;5445269;26;19961;-62
2024/04/12 09:00:34;;;;;;;;;;;18.80;54.20;;;;;;5446055;26;19929;-61
2024/04/12 09:03:24;;;;;;;;;;;18.80;53.80;;;;;;5450148;26;19928;-62
2024/04/12 09:05:57;;;;;;;;;;;18.90;53.80;;;;;;5450167;26;19928;-62
2024/04/12 09:08:28;;;;;;;;;;;18.90;53.80;;;;;;5451954;26;19943;-62
2024/04/12 09:11:05;;;;;;;;;;;19.10;53.60;;;;;;5449972;26;19944;-61
2024/04/12 09:13:48;;;;;;;;;;;19.30;53.60;;;;;;5431006;26;19941;-61
2024/04/12 09:16:23;;;;;;;;;;;19.40;53.50;;;;;;5464228;26;20409;-61
2024/04/12 09:19:13;;;;;;;;;;;19.60;53.50;;;;;;5456385;26;19928;-61
2024/04/12 09:21:47;;;;;;;;;;;19.70;53.30;;;;;;5425729;26;19929;-61
2024/04/12 09:24:27;;;;;;;;;;;19.70;53.30;;;;;;5422454;26;20371;-62
2024/04/12 09:27:09;;;;;;;;;;;19.80;53.40;;;;;;5424214;26;19928;-62
2024/04/12 09:29:54;;;;;;;;;;;19.80;53.40;;;;;;5448778;26;19928;-62
2024/04/12 09:35:26;;;;;;;;;;;20.10;53.50;;;;;;5462199;26;19960;-61
2024/04/12 09:38:05;;;;;;;;;;;20.20;53.30;;;;;;5458435;26;19947;-61
2024/04/12 09:40:40;;;;;;;;;;;20.30;53.20;;;;;;5461129;26;19935;-64
2024/04/12 09:43:29;;;;;;;;;;;20.40;53.00;;;;;;5457826;26;19935;-63
2024/04/12 09:46:15;;;;;;;;;;;20.40;52.80;;;;;;5463906;26;19932;-61
2024/04/12 10:38:09;;;;;;;;;;;21.60;51.20;;;;;;5428921;26;19929;-62
2024/04/12 10:40:45;;;;;;;;;;;21.70;50.60;;;;;;5430757;26;19928;-62
2024/04/12 10:43:23;;;;;;;;;;;21.70;50.50;;;;;;5427561;26;19929;-64
2024/04/12 10:46:04;;;;;;;;;;;21.70;50.80;;;;;;5427662;26;19929;-62
2024/04/12 10:48:38;;;;;;;;;;;21.80;51.20;;;;;;5429125;26;19932;-62
2024/04/12 10:51:17;;;;;;;;;;;21.80;50.10;;;;;;5432684;26;19940;-65
2024/04/12 10:53:50;;;;;;;;;;;21.80;50.10;;;;;;5428843;26;19937;-63
2024/04/12 10:56:26;;;;;;;;;;;21.90;50.30;;;;;;5423341;26;19940;-64
2024/04/12 10:59:06;;;;;;;;;;;21.90;50.20;;;;;;5433096;26;20363;-64
2024/04/12 11:01:44;;;;;;;;;;;22.00;50.80;;;;;;5415019;26;19936;-64
2024/04/12 11:04:18;;;;;;;;;;;22.00;50.20;;;;;;5430845;26;20280;-64
2024/04/12 11:06:54;;;;;;;;;;;22.00;50.30;;;;;;5433465;26;20115;-63
2024/04/12 11:09:38;;;;;;;;;;;22.10;50.20;;;;;;5430082;26;19936;-63
2024/04/12 11:12:17;;;;;;;;;;;22.20;50.50;;;;;;5423378;26;20150;-63
2024/04/12 11:15:11;;;;;;;;;;;22.30;50.20;;;;;;5416790;26;19941;-63
2024/04/12 11:32:15;;;;;;;;;;;22.50;50.20;;;;;;5404397;26;19997;-64
2024/04/12 11:34:51;;;;;;;;;;;22.50;50.30;;;;;;5450634;26;19944;-64
2024/04/12 11:37:24;;;;;;;;;;;22.50;50.40;;;;;;5463817;26;19928;-63
2024/04/12 11:40:03;;;;;;;;;;;22.40;50.30;;;;;;5461258;26;19936;-63
2024/04/12 11:42:39;;;;;;;;;;;22.50;50.60;;;;;;5428887;26;20022;-64
2024/04/12 11:45:15;;;;;;;;;;;22.40;50.40;;;;;;5423587;26;19940;-64
2024/04/12 11:47:50;;;;;;;;;;;22.20;50.90;;;;;;5424372;26;19936;-64
2024/04/12 11:50:26;;;;;;;;;;;22.10;51.20;;;;;;5421757;26;19929;-64
2024/04/12 11:53:01;;;;;;;;;;;22.20;51.00;;;;;;5430218;26;19929;-64
2024/04/12 11:55:36;;;;;;;;;;;22.10;51.10;;;;;;5421492;26;19997;-64
2024/04/12 11:58:08;;;;;;;;;;;22.10;51.40;;;;;;5427142;26;20267;-66
2024/04/12 12:00:48;;;;;;;;;;;22.20;51.10;;;;;;5426256;26;19928;-74
2024/04/12 12:03:25;;;;;;;;;;;22.20;52.00;;;;;;5427698;26;19937;-65
2024/04/12 12:06:06;;;;;;;;;;;22.10;51.40;;;;;;5424500;26;20359;-62
2024/04/12 12:08:41;;;;;;;;;;;22.20;51.90;;;;;;5425814;26;19997;-64
2024/04/12 12:11:23;;;;;;;;;;;22.30;51.40;;;;;;5420036;26;19999;-64
2024/04/12 12:13:56;;;;;;;;;;;22.30;51.80;;;;;;5415819;26;19932;-64
2024/04/12 12:16:33;;;;;;;;;;;22.30;51.80;;;;;;5419960;26;19957;-64
2024/04/12 12:19:08;;;;;;;;;;;22.30;51.70;;;;;;5428298;26;19929;-63
2024/04/12 12:21:43;;;;;;;;;;;22.20;52.10;;;;;;5423011;26;19964;-64
2024/04/12 12:24:15;;;;;;;;;;;22.20;52.10;;;;;;5426887;26;19928;-63
2024/04/12 12:26:51;;;;;;;;;;;22.20;52.40;;;;;;5413199;26;20605;-63
2024/04/12 12:29:25;;;;;;;;;;;22.30;52.40;;;;;;5426244;26;19997;-64
2024/04/12 12:32:01;;;;;;;;;;;22.30;52.50;;;;;;5424775;26;19929;-64
2024/04/12 12:34:38;;;;;;;;;;;22.30;52.30;;;;;;5424152;26;20276;-64
2024/04/12 12:37:13;;;;;;;;;;;22.30;52.50;;;;;;5424021;26;19935;-64
2024/04/12 12:39:47;;;;;;;;;;;22.30;52.50;;;;;;5426889;26;19928;-64
2024/04/12 12:42:23;;;;;;;;;;;22.20;53.00;;;;;;5424850;26;19928;-64
2024/04/12 12:44:56;;;;;;;;;;;22.20;53.00;;;;;;5424914;26;19929;-64
2024/04/12 12:47:32;;;;;;;;;;;22.20;53.20;;;;;;5422887;26;20368;-64
2024/04/12 12:50:16;;;;;;;;;;;22.10;53.10;;;;;;5411414;26;19937;-63
2024/04/12 12:52:52;;;;;;;;;;;22.10;53.50;;;;;;5424959;26;19936;-63
2024/04/12 12:55:28;;;;;;;;;;;22.00;53.20;;;;;;5414738;26;20001;-64
2024/04/12 12:58:09;;;;;;;;;;;22.10;53.90;;;;;;5425966;26;19987;-64
2024/04/12 13:00:44;;;;;;;;;;;22.00;53.60;;;;;;5428231;26;19935;-63
2024/04/12 13:03:25;;;;;;;;;;;22.00;54.20;;;;;;5425002;26;20376;-64
2024/04/12 13:06:06;;;;;;;;;;;21.90;54.50;;;;;;5427032;26;19928;-63
2024/04/12 13:09:03;;;;;;;;;;;21.80;54.50;;;;;;5430151;26;24149;-64
2024/04/12 13:11:36;;;;;;;;;;;21.80;54.40;;;;;;5460448;26;20210;-63
2024/04/12 13:14:18;;;;;;;;;;;21.70;54.20;;;;;;5461069;26;19928;-65
2024/04/12 13:16:50;;;;;;;;;;;21.60;55.00;;;;;;5451606;26;19928;-64
2024/04/12 13:19:27;;;;;;;;;;;21.50;55.20;;;;;;5458656;26;19928;-64
2024/04/12 13:22:04;;;;;;;;;;;21.40;55.20;;;;;;5453908;26;19929;-64
2024/04/12 13:24:40;;;;;;;;;;;21.50;55.60;;;;;;5459545;26;19944;-64
2024/04/12 13:27:23;;;;;;;;;;;21.40;55.70;;;;;;5456746;26;19929;-64
2024/04/12 13:29:58;;;;;;;;;;;21.30;56.30;;;;;;5462181;26;19984;-64
2024/04/12 13:32:39;;;;;;;;;;;21.20;56.50;;;;;;5456348;26;19928;-64
2024/04/12 13:35:14;;;;;;;;;;;21.40;56.60;;;;;;5453514;26;20412;-65
2024/04/12 13:37:52;;;;;;;;;;;21.30;56.50;;;;;;5458410;26;19937;-64
2024/04/12 13:40:27;;;;;;;;;;;21.30;55.50;;;;;;5455137;26;20006;-64
2024/04/12 13:42:59;;;;;;;;;;;21.30;56.50;;;;;;5459985;26;19927;-64
2024/04/12 13:51:18;;;;;;;;;;;21.40;57.30;;;;;;5466575;26;19929;-62
2024/04/12 13:53:58;;;;;;;;;;;21.40;56.90;;;;;;5462189;26;19944;-64
2024/04/12 13:56:33;;;;;;;;;;;21.40;56.90;;;;;;5462878;26;19928;-64
2024/04/12 13:59:10;;;;;;;;;;;21.40;56.60;;;;;;5463015;26;19928;-64
2024/04/12 14:01:45;;;;;;;;;;;21.30;56.70;;;;;;5459706;26;19939;-64
2024/04/12 14:04:18;;;;;;;;;;;21.30;57.70;;;;;;5460672;26;19943;-65
2024/04/12 14:06:54;;;;;;;;;;;21.30;57.90;;;;;;5458754;26;19935;-64
2024/04/12 14:09:30;;;;;;;;;;;21.30;57.30;;;;;;5466659;26;19935;-63
2024/04/12 14:12:05;;;;;;;;;;;21.30;57.10;;;;;;5460956;26;19940;-66
2024/04/12 14:14:31;;;;;;;;;;;21.40;57.20;;;;;;5454855;26;20236;-64
2024/04/12 14:17:13;;;;;;;;;;;21.30;57.10;;;;;;5457076;26;19996;-65
2024/04/12 14:19:46;;;;;;;;;;;21.20;57.40;;;;;;5465465;26;19944;-64
2024/04/12 14:22:21;;;;;;;;;;;21.10;58.00;;;;;;5465864;26;19928;-73
2024/04/12 14:25:01;;;;;;;;;;;21.10;58.40;;;;;;5462281;26;19928;-72
2024/04/12 14:27:36;;;;;;;;;;;21.20;58.00;;;;;;5464651;26;19936;-71
2024/04/12 14:30:15;;;;;;;;;;;21.30;57.60;;;;;;5466571;26;19937;-72
2024/04/12 14:32:50;;;;;;;;;;;21.20;58.40;;;;;;5462023;26;19990;-73
2024/04/12 14:35:23;;;;;;;;;;;21.20;58.40;;;;;;5466141;26;19940;-72
2024/04/12 14:37:59;;;;;;;;;;;21.20;58.20;;;;;;5464739;26;19936;-71
2024/04/12 14:40:34;;;;;;;;;;;21.10;58.80;;;;;;5460393;26;19936;-72
2024/04/12 14:43:11;;;;;;;;;;;21.00;59.70;;;;;;5470384;26;19928;-72
2024/04/12 14:45:43;;;;;;;;;;;20.90;59.60;;;;;;5449284;26;20260;-72
2024/04/12 14:48:19;;;;;;;;;;;20.80;59.70;;;;;;5458060;26;20258;-73
2024/04/12 14:50:53;;;;;;;;;;;20.80;59.90;;;;;;5464441;26;19951;-72
2024/04/12 14:53:28;;;;;;;;;;;20.80;59.50;;;;;;5465055;26;19936;-72
2024/04/12 14:56:04;;;;;;;;;;;20.80;60.00;;;;;;5466342;26;19928;-72
2024/04/12 14:58:39;;;;;;;;;;;20.80;59.60;;;;;;5428600;26;20356;-73
2024/04/12 15:01:11;;;;;;;;;;;20.80;59.30;;;;;;5429677;26;19929;-72
2024/04/12 15:50:26;;;;;;;;;;;20.30;61.20;;;;;;5450824;26;19928;-62
2024/04/12 16:10:42;;;;;;;;;;;20.20;61.50;;;;;;5464302;26;19929;-62
2024/04/12 16:10:56;;;;;;;;;;;20.10;62.00;;;;;;5467867;26;20359;-62
2024/04/12 16:13:31;;;;;;;;;;;20.10;62.00;;;;;;5459854;26;20403;-61
2024/04/12 16:16:06;;;;;;;;;;;20.10;61.90;;;;;;5458680;26;19935;-62
2024/04/12 16:18:41;;;;;;;;;;;20.10;61.70;;;;;;5461744;26;19931;-60
2024/04/12 16:21:19;;;;;;;;;;;20.10;61.80;;;;;;5461188;26;20320;-63
2024/04/12 16:23:52;;;;;;;;;;;20.00;61.90;;;;;;5461342;26;20370;-62
2024/04/12 16:26:28;;;;;;;;;;;20.00;62.40;;;;;;5460190;26;20364;-62
2024/04/12 16:29:02;;;;;;;;;;;19.90;62.50;;;;;;5463541;26;20363;-61
2024/04/12 16:31:38;;;;;;;;;;;19.90;62.40;;;;;;5444140;26;19956;-62
2024/04/12 16:34:12;;;;;;;;;;;19.80;62.30;;;;;;5462211;26;19927;-61
2024/04/12 16:36:51;;;;;;;;;;;19.80;62.80;;;;;;5465024;26;19935;-61
2024/04/12 16:39:24;;;;;;;;;;;19.80;62.80;;;;;;5459830;26;19928;-62
2024/04/12 16:41:59;;;;;;;;;;;19.70;62.80;;;;;;5458810;26;19928;-62
2024/04/12 16:44:38;;;;;;;;;;;19.70;63.40;;;;;;5462967;26;19935;-61
2024/04/12 16:47:13;;;;;;;;;;;19.70;63.70;;;;;;5456572;26;19951;-62
2024/04/12 16:49:58;;;;;;;;;;;;;;;;;;;;;
2024/04/12 16:52:49;;;;;;;;;;;19.60;62.90;;;;;;5464162;26;19998;-61
2024/04/12 16:55:24;;;;;;;;;;;19.60;62.50;;;;;;5462489;26;19964;-61
2024/04/12 16:58:04;;;;;;;;;;;19.60;62.40;;;;;;5462588;26;19928;-61
2024/04/12 17:00:38;;;;;;;;;;;19.50;62.60;;;;;;5462788;26;19936;-61
2024/04/12 17:03:08;;;;;;;;;;;19.50;62.90;;;;;;5465215;26;19964;-62
2024/04/12 17:05:40;;;;;;;;;;;19.40;63.00;;;;;;5459859;26;19935;-63
2024/04/12 17:08:19;;;;;;;;;;;19.40;63.10;;;;;;5458552;26;20297;-62
2024/04/12 17:10:53;;;;;;;;;;;19.30;63.30;;;;;;5465013;26;19939;-62
2024/04/12 17:13:35;;;;;;;;;;;19.30;63.60;;;;;;5453278;26;20351;-65
2024/04/12 17:16:08;;;;;;;;;;;19.30;63.70;;;;;;5462777;26;19936;-61
2024/04/12 17:18:43;;;;;;;;;;;19.30;64.10;;;;;;5460731;26;19928;-61
2024/04/12 17:21:15;;;;;;;;;;;19.30;64.40;;;;;;5461613;26;19965;-62
2024/04/12 17:23:54;;;;;;;;;;;19.20;64.90;;;;;;5462021;26;20425;-61
2024/04/12 17:26:27;;;;;;;;;;;19.20;65.00;;;;;;5461526;26;20360;-60
2024/04/12 17:29:02;;;;;;;;;;;19.10;65.20;;;;;;5460604;26;20371;-62
2024/04/12 17:31:36;;;;;;;;;;;19.10;65.20;;;;;;5457997;26;19928;-61
2024/04/12 17:34:11;;;;;;;;;;;19.10;65.40;;;;;;5463235;26;19928;-65
2024/04/12 17:36:45;;;;;;;;;;;19.10;65.50;;;;;;5469173;26;20324;-62
2024/04/12 17:39:24;;;;;;;;;;;19.10;65.70;;;;;;5456159;26;19929;-61